Current Conditions
Hazy
Conditions



Pressure
29.72 (inHG) - 1006.42 (mb)
Visibility

6.2 (miles) - 10.0 (km)
Temperature
46  °F
Temperature
41  °F
Dewpoint
82  %
 Humidity
Wind Speed
10  mph
9  kts
16  km/h
4.5  m/s
Wind Direction
N
45°
E
90°
135°
S
180°
225°
W
270°
315°
 220°

South West
Airport Data
KCMY
Sparta Fort Mc Coy Airport
Metar :KCMY 011858Z AUTO 22009KT 6SM HZ BKN140 08/05 A2972 RMK AO2 RAB26E33RAB44E54 SLP074 P0000 T00800048 $
Wed 1st December 13:58 pm
Raw Metar Info
Raw METAR is the most common format in the world for the transmission of observational weather data. It is highly standardized through the International Civil Aviation Organization (ICAO), which allows it to be understood throughout most of the world.
API Info
Data Provided by
https://www.checkwx.com/weather/KCMY

Aviation Weather providing METAR, TAF, AIRMET, SIGMET and OUTLOOK Weather Reports
© Info
CSS/SVG/PHP scripts were developed by weather34.com for use in the weather34 template © 2015-2021

Guide Info provided by Metar-Wikipedia